Aviation Digital Data Service (ADDS)

Output produced by TAFs form (0310 UTC 20 July 2018)
found at http://www.aviationweather.gov/adds/tafs/
 
KMGM 200253Z 10004KT 10SM CLR 25/24 A2995 RMK AO2 SLPNO 60001 T02500244 51010
KMGM 192332Z 2000/2024 VRB03KT P6SM VCSH SCT100 BKN250 
     FM200200 00000KT P6SM BKN250 
     FM201500 09005KT P6SM SCT250 
     FM201800 VRB02KT P6SM SCT040